• pl
  • eng

Awiacja
Kliknij na pogrubioną czerwoną nazwę, aby odkodować depeszę. 16:01 25.02.2017
  • WIND
  • SIGNIFICANT EURO
  • SIGNIFICANT
  • SIGMET
  • AIRMET
  • TAF FC
  • TAF FT
  • METAR GG30
  • METAR GG00


METAR EPBY 251500Z 26014KT 9999 FEW037 04/M04 Q1017 =

METAR EPGD 251500Z 26013KT 9999 FEW039 03/M05 Q1014 =

METAR EPKK 251500Z 26013KT 9999 FEW046 04/M05 Q1021 =

METAR EPKT 251500Z 27013KT 9999 FEW036 03/M05 Q1021 =

METAR EPLB 251500Z 29012KT 9999 FEW040 02/M05 Q1018 =

METAR EPLL 251500Z 24015KT 9999 SCT030 02/M04 Q1019 =

METAR EPMO 251500Z 26015KT 9999 FEW030 02/M03 Q1017 =

METAR EPPO 251500Z 26009KT 9999 FEW030 SCT047 04/M03 Q1019 R10/290095
=

METAR EPRA 251500Z 30012KT 9999 SCT038 02/M05 Q1019=

METAR EPRZ 251500Z 27019KT 9999 SCT040 04/M06 Q1020 =

METAR EPSC 251500Z 22008KT 190V260 9999 FEW025 BKN030 05/M00 Q1016 =

METAR EPSY 251500Z 27010KT 230V300 CAVOK 03/M09 Q1015=

METAR EPWA 251500Z 27009KT 9999 FEW030 02/M04 Q1018 R33/2///95 NOSIG=

METAR EPWR 251500Z 26009KT 9999 FEW037 05/M03 Q1021 =

METAR EPZG 251500Z 22010KT 9999 SCT045 05/M02 Q1019 =
Awiacja.imgw.pl jest pogodowym serwisem informacyjnym
Instytutu Meteorologii i Gospodarki Wodnej Państwowego Instytutu Badawczego.
Copyright IMGW PIB 2009-2011© Wszelkie prawa zastrzeżone.